createdAt,value
2022-08-19T00:02:11.064Z,99276.45
2022-08-19T00:04:43.936Z,99288.02
2022-08-19T00:07:16.804Z,99289.77
2022-08-19T00:09:50.014Z,99293.76
2022-08-19T00:12:23.163Z,99294.20
2022-08-19T00:14:56.689Z,99302.18
2022-08-19T00:17:29.971Z,99302.20
2022-08-19T00:20:02.883Z,99300.90
2022-08-19T00:22:36.174Z,99304.01
2022-08-19T00:25:10.302Z,99308.41
2022-08-19T00:27:43.635Z,99304.44
2022-08-19T00:30:16.772Z,99304.45
2022-08-19T00:32:49.956Z,99308.03
2022-08-19T00:35:23.206Z,99317.39
2022-08-19T00:37:56.110Z,99322.74
2022-08-19T00:40:29.315Z,99329.86
2022-08-19T00:43:02.327Z,99333.86
2022-08-19T00:45:36.898Z,99341.86
2022-08-19T00:48:14.764Z,99344.94
2022-08-19T00:50:51.903Z,99352.48
2022-08-19T00:53:24.213Z,99360.02
2022-08-19T00:56:00.654Z,99360.92
2022-08-19T00:58:35.969Z,99368.92
2022-08-19T01:01:09.168Z,99356.98
2022-08-19T01:03:58.026Z,99349.91
2022-08-19T01:06:20.062Z,99348.58
2022-08-19T01:08:52.989Z,99343.73
2022-08-19T01:11:27.635Z,99345.54
2022-08-19T01:14:01.438Z,99346.00
2022-08-19T01:16:34.221Z,99347.77
2022-08-19T01:19:11.591Z,99342.91
2022-08-19T01:21:52.020Z,99341.14
2022-08-19T01:24:24.983Z,99343.80
2022-08-19T01:26:57.752Z,99346.91
2022-08-19T01:29:30.706Z,99338.95
2022-08-19T01:32:04.608Z,99341.61
2022-08-19T01:34:37.748Z,99347.80
2022-08-19T01:37:13.044Z,99340.73
2022-08-19T01:39:46.911Z,99340.73
2022-08-19T01:42:20.506Z,99343.38
2022-08-19T01:44:55.085Z,99346.05
2022-08-19T01:47:27.982Z,99342.06
2022-08-19T01:50:02.096Z,99335.88
2022-08-19T01:52:38.079Z,99335.88
2022-08-19T01:55:15.547Z,99333.23
2022-08-19T01:57:54.525Z,99332.33
2022-08-19T02:00:30.816Z,99330.58
2022-08-19T02:03:03.853Z,99330.13
2022-08-19T02:05:37.072Z,99332.78
2022-08-19T02:08:10.617Z,99332.33
2022-08-19T02:10:46.153Z,99331.45
2022-08-19T02:13:21.130Z,99330.58
2022-08-19T02:15:55.113Z,99332.78
2022-08-19T02:18:28.243Z,99326.14
2022-08-19T02:21:02.780Z,99324.37
2022-08-19T02:23:36.682Z,99334.55
2022-08-19T02:26:09.569Z,99327.03
2022-08-19T02:28:44.332Z,99319.49
2022-08-19T02:31:21.479Z,99335.00
2022-08-19T02:33:56.642Z,99330.56
2022-08-19T02:36:30.267Z,99335.45
2022-08-19T02:39:03.266Z,99326.16
2022-08-19T02:41:36.466Z,99325.70
2022-08-19T02:44:30.081Z,99331.47
2022-08-19T02:46:46.054Z,99332.34
2022-08-19T02:49:18.178Z,99324.83
2022-08-19T02:51:51.548Z,99326.16
2022-08-19T02:54:24.844Z,99326.58
2022-08-19T02:56:57.649Z,99332.34
2022-08-19T02:59:34.733Z,99336.78
2022-08-19T03:02:07.672Z,99343.84
2022-08-19T03:04:41.374Z,99345.17
2022-08-19T03:07:16.403Z,99348.28
2022-08-19T03:09:49.263Z,99350.02
2022-08-19T03:12:22.409Z,99344.30
2022-08-19T03:14:55.652Z,99339.86
2022-08-19T03:17:28.660Z,99340.73
2022-08-19T03:20:01.585Z,99345.19
2022-08-19T03:22:35.490Z,99335.44
2022-08-19T03:25:08.781Z,99337.20
2022-08-19T03:27:41.862Z,99341.15
2022-08-19T03:30:15.736Z,99344.25
2022-08-19T03:32:51.430Z,99349.11
2022-08-19T03:35:24.795Z,99346.45
2022-08-19T03:37:57.964Z,99352.66
2022-08-19T03:40:31.950Z,99349.95
2022-08-19T03:43:04.876Z,99356.55
2022-08-19T03:45:38.333Z,99343.20
2022-08-19T03:48:11.346Z,99344.05
2022-08-19T03:50:44.993Z,99345.86
2022-08-19T03:53:17.930Z,99347.17
2022-08-19T03:55:50.744Z,99351.58
2022-08-19T03:58:24.911Z,99348.02
2022-08-19T04:00:58.232Z,99341.78
2022-08-19T04:03:31.065Z,99346.55
2022-08-19T04:06:26.693Z,99340.69
2022-08-19T04:09:01.874Z,99342.38
2022-08-19T04:11:44.746Z,99346.29
2022-08-19T04:14:21.894Z,99344.06
2022-08-19T04:16:55.271Z,99345.38
2022-08-19T04:19:28.849Z,99344.94
2022-08-19T04:22:02.070Z,99350.66
2022-08-19T04:24:36.726Z,99360.87
2022-08-19T04:27:09.644Z,99355.08
2022-08-19T04:29:42.795Z,99360.39
2022-08-19T04:32:17.741Z,99354.59
2022-08-19T04:35:02.731Z,99348.83
2022-08-19T04:37:25.958Z,99348.83
2022-08-19T04:40:18.170Z,99349.67
2022-08-19T04:42:51.092Z,99350.96
2022-08-19T04:45:24.302Z,99352.27
2022-08-19T04:48:26.268Z,99356.65
2022-08-19T04:50:34.245Z,99355.75
2022-08-19T04:53:08.359Z,99359.27
2022-08-19T04:55:43.764Z,99357.93
2022-08-19T04:58:18.099Z,99362.80
2022-08-19T05:00:51.056Z,99368.52
2022-08-19T05:03:27.615Z,99371.58
2022-08-19T05:05:59.773Z,99369.75
2022-08-19T05:08:38.852Z,99374.21
2022-08-19T05:11:19.545Z,99391.86
2022-08-19T05:13:54.166Z,99391.86
2022-08-19T05:16:29.185Z,99394.45
2022-08-19T05:19:19.988Z,99402.42
2022-08-19T05:22:10.704Z,99397.95
2022-08-19T05:25:02.484Z,99397.48
2022-08-19T05:27:18.658Z,99398.30
2022-08-19T05:29:53.282Z,99392.44
2022-08-19T05:32:26.243Z,99397.70
2022-08-19T05:34:59.123Z,99400.30
2022-08-19T05:37:31.937Z,99403.28
2022-08-19T05:40:06.005Z,99403.28
2022-08-19T05:42:39.392Z,99400.15
2022-08-19T05:45:13.179Z,99395.61
2022-08-19T05:47:46.328Z,99395.52
2022-08-19T05:50:19.181Z,99392.75
2022-08-19T05:52:52.198Z,99397.56
2022-08-19T05:55:25.239Z,99394.41
2022-08-19T05:57:58.553Z,99391.76
2022-08-19T06:00:32.566Z,99401.10
2022-08-19T06:03:11.711Z,99398.89
2022-08-19T06:05:46.254Z,99397.97
2022-08-19T06:08:19.050Z,99399.75
2022-08-19T06:10:51.968Z,99394.39
2022-08-19T06:13:27.043Z,99397.50
2022-08-19T06:16:01.566Z,99398.81
2022-08-19T06:18:34.778Z,99400.56
2022-08-19T06:21:07.765Z,99412.13
2022-08-19T06:23:41.736Z,99419.20
2022-08-19T06:26:19.706Z,99416.98
2022-08-19T06:28:52.990Z,99424.08
2022-08-19T06:31:29.470Z,99428.06
2022-08-19T06:34:06.525Z,99427.11
2022-08-19T06:36:44.018Z,99433.72
2022-08-19T06:39:21.141Z,99433.20
2022-08-19T06:41:59.004Z,99433.59
2022-08-19T06:44:43.015Z,99435.74
2022-08-19T06:47:23.059Z,99435.23
2022-08-19T06:49:49.820Z,99439.20
2022-08-19T06:52:24.151Z,99436.95
2022-08-19T06:54:59.769Z,99439.13
2022-08-19T06:57:34.138Z,99443.09
2022-08-19T07:00:13.041Z,99445.29
2022-08-19T07:02:50.739Z,99447.92
2022-08-19T07:05:20.948Z,99446.94
2022-08-19T07:07:54.591Z,99446.45
2022-08-19T07:10:29.188Z,99454.41
2022-08-19T07:13:02.351Z,99449.93
2022-08-19T07:15:35.333Z,99443.63
2022-08-19T07:18:11.612Z,99437.75
2022-08-19T07:20:44.409Z,99440.27
2022-08-19T07:23:18.135Z,99442.44
2022-08-19T07:25:52.978Z,99441.92
2022-08-19T07:28:25.951Z,99443.59
2022-08-19T07:31:02.109Z,99447.94
2022-08-19T07:33:37.360Z,99445.13
2022-08-19T07:36:15.613Z,99450.38
2022-08-19T07:38:52.092Z,99450.21
2022-08-19T07:41:27.607Z,99455.39
2022-08-19T07:44:05.035Z,99458.42
2022-08-19T07:46:41.010Z,99447.66
2022-08-19T07:49:16.612Z,99447.64
2022-08-19T07:52:03.538Z,99448.05
2022-08-19T07:54:39.312Z,99460.47
2022-08-19T07:57:12.365Z,99455.98
2022-08-19T07:59:45.290Z,99453.22
2022-08-19T08:02:18.584Z,99460.34
2022-08-19T08:05:09.175Z,99459.41
2022-08-19T08:08:01.392Z,99462.00
2022-08-19T08:10:34.534Z,99462.31
2022-08-19T08:13:09.354Z,99454.70
2022-08-19T08:15:43.761Z,99448.41
2022-08-19T08:18:16.902Z,99446.55
2022-08-19T08:20:50.598Z,99448.22
2022-08-19T08:23:30.864Z,99447.70
2022-08-19T08:26:06.012Z,99448.06
2022-08-19T08:28:40.195Z,99457.78
2022-08-19T08:31:14.007Z,99450.95
2022-08-19T08:33:47.260Z,99456.95
2022-08-19T08:36:20.193Z,99457.66
2022-08-19T08:41:34.453Z,99457.22
2022-08-19T08:44:08.614Z,99460.16
2022-08-19T08:46:59.855Z,99462.22
2022-08-19T08:49:40.049Z,99453.53
2022-08-19T08:52:31.978Z,99451.18
2022-08-19T08:55:10.126Z,99448.89
2022-08-19T08:57:57.372Z,99454.10
2022-08-19T09:00:34.898Z,99454.47
2022-08-19T09:03:24.372Z,99455.66
2022-08-19T09:06:11.898Z,99455.54
2022-08-19T09:09:12.113Z,99456.37
2022-08-19T09:12:31.803Z,99456.69
2022-08-19T09:15:11.155Z,99450.73
2022-08-19T09:17:44.297Z,99452.83
2022-08-19T09:20:26.201Z,99451.41
2022-08-19T09:22:59.751Z,99453.06
2022-08-19T09:25:34.354Z,99451.69
2022-08-19T09:28:20.331Z,99456.45
2022-08-19T09:30:45.328Z,99447.84
2022-08-19T09:33:18.675Z,99445.95
2022-08-19T09:35:53.617Z,99437.81
2022-08-19T09:38:26.274Z,99436.73
2022-08-19T09:40:59.364Z,99438.86
2022-08-19T09:43:33.879Z,99435.62
2022-08-19T09:46:10.300Z,99437.78
2022-08-19T09:48:43.776Z,99437.30
2022-08-19T09:51:21.388Z,99437.78
2022-08-19T09:53:55.273Z,99438.73
2022-08-19T09:56:28.485Z,99440.90
2022-08-19T09:59:03.543Z,99430.50
2022-08-19T10:01:36.643Z,99437.53
2022-08-19T10:04:14.684Z,99435.23
2022-08-19T10:06:48.780Z,99435.14
2022-08-19T10:09:33.989Z,99437.31
2022-08-19T10:11:58.594Z,99443.42
2022-08-19T10:14:32.434Z,99441.59
2022-08-19T10:17:19.210Z,99436.13
2022-08-19T10:19:41.726Z,99433.84
2022-08-19T10:22:17.359Z,99428.08
2022-08-19T10:24:50.801Z,99428.95
2022-08-19T10:27:24.031Z,99431.81
2022-08-19T10:29:58.785Z,99430.17
2022-08-19T10:32:34.467Z,99428.25
2022-08-19T10:35:09.557Z,99425.73
2022-08-19T10:37:56.852Z,99426.03
2022-08-19T10:40:17.272Z,99428.48
2022-08-19T10:42:50.872Z,99425.86
2022-08-19T10:45:26.857Z,99425.97
2022-08-19T10:48:01.323Z,99419.02
2022-08-19T10:50:53.549Z,99414.50
2022-08-19T10:53:26.858Z,99418.06
2022-08-19T10:56:17.706Z,99417.58
2022-08-19T10:58:50.940Z,99419.41
2022-08-19T11:01:23.959Z,99413.88
2022-08-19T11:03:58.561Z,99414.55
2022-08-19T11:06:33.340Z,99414.36
2022-08-19T11:09:07.178Z,99403.94
2022-08-19T11:11:42.094Z,99399.75
2022-08-19T11:14:19.846Z,99403.19
2022-08-19T11:16:55.946Z,99404.33
2022-08-19T11:19:28.876Z,99400.59
2022-08-19T11:22:04.081Z,99398.22
2022-08-19T11:24:37.912Z,99395.80
2022-08-19T11:27:12.417Z,99403.29
2022-08-19T11:29:45.513Z,99403.71
2022-08-19T11:32:18.783Z,99402.37
2022-08-19T11:34:51.666Z,99400.39
2022-08-19T11:37:25.022Z,99400.18
2022-08-19T11:39:58.415Z,99399.02
2022-08-19T11:42:49.191Z,99396.05
2022-08-19T11:45:22.190Z,99398.05
2022-08-19T11:47:55.752Z,99392.03
2022-08-19T11:50:28.810Z,99389.03
2022-08-19T11:53:01.986Z,99389.94
2022-08-19T11:55:34.855Z,99389.00
2022-08-19T11:58:18.755Z,99388.21
2022-08-19T12:00:46.462Z,99384.75
2022-08-19T12:03:20.911Z,99380.70
2022-08-19T12:05:53.033Z,99383.79
2022-08-19T12:08:26.022Z,99372.95
2022-08-19T12:11:01.505Z,99371.14
2022-08-19T12:13:34.865Z,99367.98
2022-08-19T12:16:17.970Z,99373.50
2022-08-19T12:18:52.265Z,99366.88
2022-08-19T12:21:30.317Z,99362.36
2022-08-19T12:24:06.707Z,99359.46
2022-08-19T12:26:53.229Z,99351.98
2022-08-19T12:29:18.444Z,99358.74
2022-08-19T12:31:51.538Z,99356.22
2022-08-19T12:34:26.026Z,99355.02
2022-08-19T12:37:01.107Z,99340.55
2022-08-19T12:39:39.840Z,99335.83
2022-08-19T12:42:15.411Z,99333.31
2022-08-19T12:44:48.783Z,99329.84
2022-08-19T12:47:22.417Z,99323.53
2022-08-19T12:49:56.227Z,99323.34
2022-08-19T12:52:29.790Z,99325.38
2022-08-19T12:55:02.848Z,99312.31
2022-08-19T12:57:36.872Z,99307.37
2022-08-19T13:00:17.964Z,99299.64
2022-08-19T13:02:53.665Z,99300.98
2022-08-19T13:05:30.458Z,99299.09
2022-08-19T13:08:04.129Z,99295.83
2022-08-19T13:10:38.342Z,99302.31
2022-08-19T13:13:12.580Z,99313.28
2022-08-19T13:15:46.602Z,99313.22
2022-08-19T13:18:19.745Z,99321.25
2022-08-19T13:20:53.212Z,99324.81
2022-08-19T13:23:26.494Z,99325.20
2022-08-19T13:26:06.500Z,99335.92
2022-08-19T13:28:59.623Z,99340.83
2022-08-19T13:31:54.148Z,99346.22
2022-08-19T13:34:35.116Z,99354.73
2022-08-19T13:37:08.842Z,99348.41
2022-08-19T13:39:41.119Z,99348.73
2022-08-19T13:42:15.277Z,99355.34
2022-08-19T13:44:48.987Z,99353.13
2022-08-19T13:47:22.257Z,99343.63
2022-08-19T13:49:55.245Z,99344.05
2022-08-19T13:52:28.285Z,99349.76
2022-08-19T13:55:01.347Z,99350.17
2022-08-19T13:57:34.588Z,99362.56
2022-08-19T14:00:14.189Z,99362.79
2022-08-19T14:02:49.178Z,99371.11
2022-08-19T14:05:23.115Z,99364.97
2022-08-19T14:07:57.032Z,99366.38
2022-08-19T14:10:32.792Z,99372.79
2022-08-19T14:13:06.731Z,99389.39
2022-08-19T14:15:41.394Z,99414.42
2022-08-19T14:18:14.660Z,99414.27
2022-08-19T14:20:48.211Z,99425.05
2022-08-19T14:23:21.403Z,99419.72
2022-08-19T14:25:55.846Z,99416.21
2022-08-19T14:28:29.653Z,99412.83
2022-08-19T14:31:02.625Z,99423.33
2022-08-19T14:33:36.188Z,99417.40
2022-08-19T14:36:09.345Z,99411.64
2022-08-19T14:38:44.228Z,99415.58
2022-08-19T14:41:24.196Z,99419.41
2022-08-19T14:43:57.584Z,99425.62
2022-08-19T14:46:31.967Z,99425.62
2022-08-19T14:49:09.368Z,99427.95
2022-08-19T14:51:40.972Z,99430.70
2022-08-19T14:54:14.231Z,99430.70
2022-08-19T14:56:47.249Z,99425.31
2022-08-19T14:59:20.131Z,99423.28
2022-08-19T15:01:53.748Z,99422.09
2022-08-19T15:04:31.977Z,99424.20
2022-08-19T15:07:04.304Z,99414.84
2022-08-19T15:09:37.738Z,99410.20
2022-08-19T15:12:11.559Z,99407.40
2022-08-19T15:14:47.933Z,99412.94
2022-08-19T15:17:25.747Z,99419.27
2022-08-19T15:19:57.611Z,99422.55
2022-08-19T15:22:30.839Z,99422.37
2022-08-19T15:25:04.643Z,99420.41
2022-08-19T15:27:37.853Z,99419.32
2022-08-19T15:30:12.448Z,99415.93
2022-08-19T15:32:48.934Z,99410.75
2022-08-19T15:35:20.935Z,99411.81
2022-08-19T15:37:54.827Z,99407.59
2022-08-19T15:40:29.267Z,99404.77
2022-08-19T15:43:02.480Z,99407.34
2022-08-19T15:45:35.931Z,99408.63
2022-08-19T15:48:09.224Z,99411.17
2022-08-19T15:50:43.491Z,99406.12
2022-08-19T15:53:16.416Z,99396.98
2022-08-19T15:55:50.977Z,99402.16
2022-08-19T15:58:41.885Z,99403.31
2022-08-19T16:01:35.439Z,99409.81
2022-08-19T16:04:24.629Z,99410.10
2022-08-19T16:07:00.452Z,99418.38
2022-08-19T16:09:35.766Z,99433.84
2022-08-19T16:12:10.749Z,99446.16
2022-08-19T16:14:44.515Z,99456.69
2022-08-19T16:17:17.875Z,99463.27
2022-08-19T16:19:52.744Z,99466.17
2022-08-19T16:22:32.617Z,99475.77
2022-08-19T16:25:07.628Z,99483.52
2022-08-19T16:27:41.516Z,99484.17
2022-08-19T16:30:15.936Z,99488.37
2022-08-19T16:32:49.051Z,99487.16
2022-08-19T16:35:22.521Z,99489.14
2022-08-19T16:37:55.741Z,99491.55
2022-08-19T16:40:28.877Z,99489.09
2022-08-19T16:43:03.198Z,99492.84
2022-08-19T16:45:36.100Z,99495.17
2022-08-19T16:48:09.101Z,99489.07
2022-08-19T16:50:49.508Z,99487.39
2022-08-19T16:53:23.067Z,99486.64
2022-08-19T16:55:57.699Z,99480.97
2022-08-19T16:58:33.725Z,99468.64
2022-08-19T17:01:10.297Z,99471.45
2022-08-19T17:03:43.777Z,99484.05
2022-08-19T17:06:21.643Z,99485.97
2022-08-19T17:09:00.825Z,99492.36
2022-08-19T17:11:34.502Z,99501.38
2022-08-19T17:14:08.770Z,99510.01
2022-08-19T17:16:43.731Z,99527.93
2022-08-19T17:19:17.537Z,99530.22
2022-08-19T17:21:50.649Z,99542.77
2022-08-19T17:24:23.761Z,99538.78
2022-08-19T17:26:56.625Z,99547.31
2022-08-19T17:29:29.723Z,99550.48
2022-08-19T17:32:02.936Z,99546.55
2022-08-19T17:34:35.891Z,99547.55
2022-08-19T17:37:09.092Z,99539.16
2022-08-19T17:39:42.621Z,99545.95
2022-08-19T17:42:15.696Z,99542.05
2022-08-19T17:44:50.879Z,99542.99
2022-08-19T17:47:23.302Z,99552.80
2022-08-19T17:49:57.252Z,99568.83
2022-08-19T17:52:30.285Z,99573.75
2022-08-19T17:55:03.505Z,99582.21
2022-08-19T17:57:36.632Z,99575.98
2022-08-19T18:00:15.465Z,99576.48
2022-08-19T18:03:00.532Z,99579.22
2022-08-19T18:05:38.184Z,99587.27
2022-08-19T18:08:12.932Z,99595.34
2022-08-19T18:10:45.636Z,99594.50
2022-08-19T18:13:18.864Z,99598.56
2022-08-19T18:15:52.337Z,99607.09
2022-08-19T18:18:25.710Z,99618.20
2022-08-19T18:20:59.319Z,99618.63
2022-08-19T18:23:44.952Z,99620.84
2022-08-19T18:26:09.172Z,99627.11
2022-08-19T18:28:49.447Z,99635.55
2022-08-19T18:31:19.499Z,99646.72
2022-08-19T18:33:54.897Z,99663.68
2022-08-19T18:36:52.540Z,99665.45
2022-08-19T18:39:23.751Z,99673.07
2022-08-19T18:42:15.577Z,99666.43
2022-08-19T18:45:06.264Z,99664.68
2022-08-19T18:47:57.134Z,99666.45
2022-08-19T18:50:29.939Z,99660.16
2022-08-19T18:53:02.855Z,99661.47
2022-08-19T18:55:35.811Z,99656.59
2022-08-19T18:58:09.211Z,99653.91
2022-08-19T19:00:42.182Z,99645.91
2022-08-19T19:03:15.109Z,99658.77
2022-08-19T19:05:49.247Z,99661.88
2022-08-19T19:08:27.178Z,99665.42
2022-08-19T19:10:59.850Z,99676.09
2022-08-19T19:13:35.562Z,99681.91
2022-08-19T19:16:11.363Z,99687.27
2022-08-19T19:18:44.985Z,99694.42
2022-08-19T19:21:17.585Z,99691.27
2022-08-19T19:23:50.646Z,99697.92
2022-08-19T19:26:23.701Z,99693.05
2022-08-19T19:28:57.883Z,99702.83
2022-08-19T19:31:31.582Z,99698.89
2022-08-19T19:34:04.958Z,99695.87
2022-08-19T19:36:39.739Z,99698.59
2022-08-19T19:39:12.574Z,99699.48
2022-08-19T19:41:47.629Z,99703.94
2022-08-19T19:44:29.927Z,99695.97
2022-08-19T19:46:55.961Z,99694.23
2022-08-19T19:49:30.768Z,99699.19
2022-08-19T19:52:03.708Z,99678.81
2022-08-19T19:54:38.070Z,99676.30
2022-08-19T19:57:11.925Z,99675.93
2022-08-19T19:59:51.184Z,99674.24
2022-08-19T20:02:19.986Z,99684.51
2022-08-19T20:04:52.984Z,99679.23
2022-08-19T20:07:27.866Z,99680.65
2022-08-19T20:10:01.373Z,99675.34
2022-08-19T20:12:34.885Z,99666.94
2022-08-19T20:15:09.258Z,99663.43
2022-08-19T20:17:43.339Z,99680.76
2022-08-19T20:20:19.527Z,99681.22
2022-08-19T20:22:52.454Z,99662.12
2022-08-19T20:25:25.839Z,99660.80
2022-08-19T20:28:00.252Z,99656.82
2022-08-19T20:30:34.503Z,99656.83
2022-08-19T20:33:07.589Z,99654.66
2022-08-19T20:35:40.721Z,99654.66
2022-08-19T20:38:13.969Z,99657.78
2022-08-19T20:40:47.153Z,99656.88
2022-08-19T20:43:20.017Z,99659.13
2022-08-19T20:45:53.161Z,99657.33
2022-08-19T20:48:26.275Z,99657.33
2022-08-19T20:50:59.811Z,99656.92
2022-08-19T20:53:33.072Z,99656.92
2022-08-19T20:56:07.161Z,99648.50
2022-08-19T20:58:40.850Z,99643.65
2022-08-19T21:01:14.149Z,99634.79
2022-08-19T21:03:46.973Z,99634.79
2022-08-19T21:06:19.252Z,99630.34
2022-08-19T21:08:54.631Z,99632.56
2022-08-19T21:11:26.774Z,99634.36
2022-08-19T21:13:59.356Z,99630.37
2022-08-19T21:16:33.352Z,99629.03
2022-08-19T21:19:05.220Z,99626.38
2022-08-19T21:21:37.293Z,99631.23
2022-08-19T21:24:09.147Z,99631.23
2022-08-19T21:26:41.009Z,99633.02
2022-08-19T21:29:12.593Z,99631.69
2022-08-19T21:31:44.597Z,99626.37
2022-08-19T21:34:16.348Z,99624.16
2022-08-19T21:36:48.452Z,99625.03
2022-08-19T21:39:20.377Z,99627.70
2022-08-19T21:41:52.657Z,99629.48
2022-08-19T21:44:24.413Z,99625.92
2022-08-19T21:46:57.085Z,99617.97
2022-08-19T21:49:29.080Z,99621.52
2022-08-19T21:52:02.193Z,99622.39
2022-08-19T21:54:37.941Z,99626.39
2022-08-19T21:57:10.587Z,99617.08
2022-08-19T21:59:44.038Z,99616.20
2022-08-19T22:02:21.291Z,99615.74
2022-08-19T22:04:54.529Z,99614.87
2022-08-19T22:07:26.346Z,99616.20
2022-08-19T22:09:58.298Z,99621.52
2022-08-19T22:12:32.847Z,99615.33
2022-08-19T22:15:07.192Z,99626.86
2022-08-19T22:17:40.486Z,99629.09
2022-08-19T22:20:15.757Z,99629.97
2022-08-19T22:22:50.467Z,99624.65
2022-08-19T22:25:31.509Z,99629.52
2022-08-19T22:28:01.720Z,99622.86
2022-08-19T22:30:38.237Z,99630.42
2022-08-19T22:33:12.606Z,99627.31
2022-08-19T22:35:47.111Z,99625.52
2022-08-19T22:38:19.572Z,99618.45
2022-08-19T22:40:51.901Z,99613.55
2022-08-19T22:43:26.355Z,99608.69
2022-08-19T22:45:59.371Z,99608.23
2022-08-19T22:48:32.901Z,99602.91
2022-08-19T22:51:22.655Z,99606.03
2022-08-19T22:53:57.395Z,99602.91
2022-08-19T22:56:29.220Z,99596.27
2022-08-19T22:59:02.937Z,99591.41
2022-08-19T23:01:36.265Z,99602.05
2022-08-19T23:04:08.023Z,99601.59
2022-08-19T23:06:42.057Z,99600.26
2022-08-19T23:09:16.985Z,99605.58
2022-08-19T23:11:48.453Z,99592.28
2022-08-19T23:14:20.335Z,99605.58
2022-08-19T23:16:55.953Z,99593.19
2022-08-19T23:19:26.968Z,99582.97
2022-08-19T23:22:00.516Z,99585.63
2022-08-19T23:24:32.363Z,99580.31
2022-08-19T23:27:21.697Z,99582.06
2022-08-19T23:30:13.098Z,99580.73
2022-08-19T23:32:46.476Z,99577.66
2022-08-19T23:35:18.251Z,99572.76
2022-08-19T23:37:51.902Z,99584.30
2022-08-19T23:40:24.016Z,99575.00
2022-08-19T23:42:55.713Z,99578.53
2022-08-19T23:45:28.075Z,99582.06
2022-08-19T23:48:03.577Z,99589.17
2022-08-19T23:50:36.237Z,99590.95
2022-08-19T23:53:09.480Z,99592.28
2022-08-19T23:55:44.858Z,99594.03
2022-08-19T23:58:17.678Z,99595.81
